Time;durP1;ratioP1;P1;durP2;ratioP2;P2;SDS_P1;SDS_P2;PMS_P1;PMS_P2;Temp;Humidity;BMP_temperature;BMP_pressure;BME280_temperature;BME280_humidity;BME280_pressure;Samples;Min_cycle;Max_cycle;Signal;HPM_P1;HPM_P2
2022/05/31 00:00:18;;;;;;;0.77;0.60;;;21.90;42.00;;;-147.20;100.00;58430.41;5093084;28;20043;-19
2022/05/31 00:02:45;;;;;;;1.23;0.80;;;21.90;42.00;;;-147.20;100.00;58430.41;5093358;28;20052;-18
2022/05/31 00:05:12;;;;;;;7.53;1.55;;;21.90;42.00;;;-147.20;100.00;58430.41;5093270;28;20047;-18
2022/05/31 00:07:39;;;;;;;1.13;1.00;;;21.90;42.00;;;-147.20;100.00;58430.41;5092732;28;20408;-18
2022/05/31 00:10:08;;;;;;;0.98;0.88;;;21.90;42.00;;;-147.20;100.00;58430.41;5092425;28;20048;-18
2022/05/31 00:12:34;;;;;;;1.42;0.93;;;21.90;42.00;;;-147.20;100.00;58430.41;5092693;28;20098;-18
2022/05/31 00:15:02;;;;;;;1.15;0.82;;;21.90;42.00;;;-147.20;100.00;58430.41;5092552;28;20047;-19
2022/05/31 00:17:28;;;;;;;1.10;0.93;;;21.80;42.00;;;-147.20;100.00;58430.41;5092947;28;20104;-19
2022/05/31 00:19:53;;;;;;;1.38;0.85;;;21.80;42.50;;;-147.20;100.00;58430.41;5092295;28;20143;-18
2022/05/31 00:22:22;;;;;;;0.98;0.70;;;21.90;42.00;;;-147.20;100.00;58430.41;5092539;28;20051;-18
2022/05/31 00:24:49;;;;;;;0.75;0.75;;;21.80;41.90;;;-147.20;100.00;58430.41;5093075;28;20048;-18
2022/05/31 00:27:19;;;;;;;0.80;0.70;;;21.80;41.90;;;-147.20;100.00;58430.41;5092814;28;20493;-18
2022/05/31 00:29:47;;;;;;;1.02;0.80;;;21.90;42.00;;;-147.20;100.00;58430.41;5072993;28;20061;-18
2022/05/31 00:32:15;;;;;;;0.80;0.80;;;21.80;42.00;;;-147.20;100.00;58430.41;5092477;28;20127;-18
2022/05/31 00:34:45;;;;;;;1.90;0.82;;;21.80;41.90;;;-147.20;100.00;58430.41;5074297;28;20040;-18
2022/05/31 00:37:12;;;;;;;1.75;0.95;;;21.80;41.90;;;-147.20;100.00;58430.41;5074713;28;20047;-18
2022/05/31 00:39:39;;;;;;;1.67;0.82;;;21.80;42.00;;;-147.20;100.00;58430.41;5092433;28;20047;-18
2022/05/31 00:42:11;;;;;;;0.70;0.70;;;21.80;42.00;;;-147.20;100.00;58430.41;5092577;28;20404;-18
2022/05/31 00:44:38;;;;;;;1.08;0.98;;;21.80;42.00;;;-147.20;100.00;58430.41;5074332;28;20060;-18
2022/05/31 00:47:15;;;;;;;0.95;0.85;;;21.80;42.00;;;-147.20;100.00;58430.41;5073989;28;20044;-18
2022/05/31 00:50:06;;;;;;;1.45;0.70;;;21.80;42.00;;;-147.20;100.00;58430.41;5077925;28;20056;-18
2022/05/31 00:52:46;;;;;;;1.02;0.80;;;21.80;42.00;;;-147.20;100.00;58430.41;5060806;28;20139;-19
2022/05/31 00:55:26;;;;;;;0.70;0.70;;;21.80;42.00;;;-147.20;100.00;58430.41;5078346;28;20047;-19
2022/05/31 00:58:26;;;;;;;1.60;1.10;;;21.80;42.00;;;-147.20;100.00;58430.41;5060914;28;20044;-18
2022/05/31 01:00:51;;;;;;;0.98;0.68;;;21.80;42.00;;;-147.20;100.00;58430.41;5086950;28;20400;-18
2022/05/31 01:03:20;;;;;;;0.90;0.70;;;21.80;42.00;;;-147.20;100.00;58430.41;5077880;28;20044;-18
2022/05/31 01:05:46;;;;;;;1.15;0.70;;;21.80;42.00;;;-147.20;100.00;58430.41;5095493;28;20052;-18
2022/05/31 01:08:13;;;;;;;1.25;0.77;;;21.80;42.00;;;-147.20;100.00;58430.41;5095379;28;20059;-18
2022/05/31 01:10:58;;;;;;;1.17;0.70;;;21.80;42.00;;;-147.20;100.00;58430.41;5077865;28;20039;-18
2022/05/31 01:13:56;;;;;;;1.17;0.75;;;21.80;42.00;;;-147.20;100.00;58430.41;5050304;28;20044;-19
2022/05/31 01:17:01;;;;;;;0.70;0.60;;;21.80;42.00;;;-147.20;100.00;58430.41;5077814;28;20052;-18
2022/05/31 01:19:56;;;;;;;1.15;0.98;;;21.80;42.00;;;-147.20;100.00;58430.41;5095630;28;20391;-18
2022/05/31 01:22:29;;;;;;;0.98;0.88;;;21.80;42.00;;;-147.20;100.00;58430.41;5077693;28;20108;-18
2022/05/31 01:25:24;;;;;;;1.63;0.70;;;21.80;42.00;;;-147.20;100.00;58430.41;5095568;28;20054;-19
2022/05/31 01:28:22;;;;;;;1.23;1.00;;;21.80;42.00;;;-147.20;100.00;58430.41;5095133;28;20048;-19
2022/05/31 01:31:13;;;;;;;1.95;0.90;;;21.80;42.00;;;-147.20;100.00;58430.41;5093713;28;20048;-18
2022/05/31 01:33:56;;;;;;;1.00;0.90;;;21.80;42.00;;;-147.20;100.00;58430.41;5077060;28;20051;-18
2022/05/31 01:36:54;;;;;;;0.70;0.70;;;21.80;42.00;;;-147.20;100.00;58430.41;5077061;28;20059;-19
2022/05/31 01:39:45;;;;;;;1.52;0.70;;;21.80;42.00;;;-147.20;100.00;58430.41;5075067;28;20086;-18
2022/05/31 01:42:24;;;;;;;0.70;0.70;;;21.70;41.90;;;-147.20;100.00;58430.41;5075943;28;20053;-19
2022/05/31 01:45:02;;;;;;;1.17;0.80;;;21.80;42.00;;;-147.20;100.00;58430.41;5077452;28;20463;-18
2022/05/31 01:47:28;;;;;;;0.65;0.60;;;21.80;42.00;;;-147.20;100.00;58430.41;5094938;28;20052;-18
2022/05/31 01:49:54;;;;;;;0.75;0.75;;;21.80;42.00;;;-147.20;100.00;58430.41;5076682;28;20407;-19
2022/05/31 01:52:22;;;;;;;0.77;0.60;;;21.70;41.90;;;-147.20;100.00;58430.41;5094764;28;20475;-18
2022/05/31 01:54:49;;;;;;;0.90;0.70;;;21.70;41.90;;;-147.20;100.00;58430.41;5095033;28;20044;-18
2022/05/31 01:57:17;;;;;;;0.70;0.70;;;21.70;42.00;;;-147.20;100.00;58430.41;5076873;28;20048;-19
2022/05/31 01:59:49;;;;;;;0.93;0.80;;;21.70;41.90;;;-147.20;100.00;58430.41;5059180;28;20048;-19
2022/05/31 02:02:17;;;;;;;1.50;0.80;;;21.70;42.00;;;-147.20;100.00;58430.41;5074537;28;20037;-18
2022/05/31 02:04:45;;;;;;;1.20;0.90;;;21.80;42.00;;;-147.20;100.00;58430.41;5094897;28;20392;-18
2022/05/31 02:07:15;;;;;;;0.70;0.70;;;21.80;42.00;;;-147.20;100.00;58430.41;5076314;28;20044;-18
2022/05/31 02:09:47;;;;;;;0.75;0.75;;;21.70;41.90;;;-147.20;100.00;58430.41;5076671;28;20079;-18
2022/05/31 02:12:23;;;;;;;0.80;0.80;;;21.70;42.00;;;-147.20;100.00;58430.41;5078131;28;20121;-18
2022/05/31 02:15:20;;;;;;;0.55;0.55;;;21.70;42.00;;;-147.20;100.00;58430.41;5076179;28;20052;-18
2022/05/31 02:18:07;;;;;;;1.15;0.93;;;21.70;42.00;;;-147.20;100.00;58430.41;5094030;28;20051;-19
2022/05/31 02:20:54;;;;;;;1.20;0.90;;;21.70;42.00;;;-147.20;100.00;58430.41;5093095;28;20518;-18
2022/05/31 02:23:20;;;;;;;0.70;0.70;;;21.70;42.00;;;-147.20;100.00;58430.41;5075748;28;20158;-18
2022/05/31 02:25:46;;;;;;;0.68;0.68;;;21.70;42.00;;;-147.20;100.00;58430.41;5094539;28;20092;-18
2022/05/31 02:28:12;;;;;;;0.70;0.70;;;21.70;42.00;;;-147.20;100.00;58430.41;5074227;28;20044;-18
2022/05/31 02:30:38;;;;;;;0.73;0.55;;;21.70;42.00;;;-147.20;100.00;58430.41;5092998;28;20052;-19
2022/05/31 02:33:03;;;;;;;1.02;0.60;;;21.70;42.00;;;-147.20;100.00;58430.41;5094190;28;20070;-19
2022/05/31 02:35:29;;;;;;;0.80;0.63;;;21.70;42.00;;;-147.20;100.00;58430.41;5076473;28;20151;-18
2022/05/31 02:37:56;;;;;;;0.85;0.80;;;21.70;42.00;;;-147.20;100.00;58430.41;5092662;28;20134;-18
2022/05/31 02:40:22;;;;;;;0.70;0.68;;;21.70;42.00;;;-147.20;100.00;58430.41;5094268;28;20052;-18
2022/05/31 02:42:48;;;;;;;0.75;0.75;;;21.70;42.00;;;-147.20;100.00;58430.41;5076902;28;20438;-18
2022/05/31 02:45:14;;;;;;;0.50;0.50;;;21.70;42.00;;;-147.20;100.00;58430.41;5076280;28;20102;-19
2022/05/31 02:47:40;;;;;;;1.20;0.90;;;21.70;42.00;;;-147.20;100.00;58430.41;5075581;28;20040;-18
2022/05/31 02:50:07;;;;;;;0.65;0.65;;;21.70;42.00;;;-147.20;100.00;58430.41;5075671;28;20040;-19
2022/05/31 02:52:34;;;;;;;0.80;0.70;;;21.70;42.00;;;-147.20;100.00;58430.41;5093877;28;20085;-18
2022/05/31 02:55:01;;;;;;;0.60;0.60;;;21.70;42.00;;;-147.20;100.00;58430.41;5075509;28;20051;-18
2022/05/31 02:57:26;;;;;;;1.27;0.90;;;21.70;42.00;;;-147.20;100.00;58430.41;5093664;28;20052;-18
2022/05/31 03:00:12;;;;;;;0.68;0.60;;;21.70;42.00;;;-147.20;100.00;58430.41;5093752;28;20408;-18
2022/05/31 03:02:58;;;;;;;0.82;0.82;;;21.70;42.00;;;-147.20;100.00;58430.41;5093523;28;20135;-18
2022/05/31 03:05:42;;;;;;;0.85;0.75;;;21.70;42.00;;;-147.20;100.00;58430.41;5093351;28;20059;-18
2022/05/31 03:08:27;;;;;;;2.30;1.02;;;21.70;42.00;;;-147.20;100.00;58430.41;5093008;28;20047;-19
2022/05/31 03:11:14;;;;;;;0.50;0.50;;;21.70;42.00;;;-147.20;100.00;58430.41;5091963;28;20044;-18
2022/05/31 03:13:41;;;;;;;0.93;0.80;;;21.70;41.90;;;-147.20;100.00;58430.41;5093847;28;20294;-19
2022/05/31 03:16:07;;;;;;;0.75;0.70;;;21.70;41.90;;;-147.20;100.00;58430.41;5075199;28;20044;-18
2022/05/31 03:18:38;;;;;;;0.95;0.85;;;21.70;41.90;;;-147.20;100.00;58430.41;5079871;28;20052;-18
2022/05/31 03:21:14;;;;;;;0.70;0.70;;;21.80;41.90;;;-147.20;100.00;58430.41;5093780;28;20048;-18
2022/05/31 03:23:52;;;;;;;0.90;0.80;;;21.80;41.90;;;-147.20;100.00;58430.41;5074407;28;20348;-18
2022/05/31 03:26:20;;;;;;;0.80;0.60;;;21.80;41.80;;;-147.20;100.00;58430.41;5093411;28;20040;-18
2022/05/31 03:28:47;;;;;;;0.80;0.70;;;21.80;41.80;;;-147.20;100.00;58430.41;5041796;28;20047;-18
2022/05/31 03:31:13;;;;;;;0.80;0.80;;;21.90;41.70;;;-147.20;100.00;58430.41;5073595;28;20053;-18
2022/05/31 03:33:39;;;;;;;1.15;0.70;;;21.90;41.70;;;-147.20;100.00;58430.41;5074970;28;20051;-19
2022/05/31 03:36:06;;;;;;;0.73;0.70;;;21.90;41.70;;;-147.20;100.00;58430.41;5093556;28;20356;-19
2022/05/31 03:38:39;;;;;;;0.95;0.80;;;21.90;41.70;;;-147.20;100.00;58430.41;5072427;28;20056;-19
2022/05/31 03:41:07;;;;;;;0.90;0.75;;;21.90;42.20;;;-147.20;100.00;58430.41;5074891;28;20052;-19
2022/05/31 03:43:39;;;;;;;0.73;0.63;;;21.90;41.70;;;-147.20;100.00;58430.41;5075300;28;20075;-18
2022/05/31 03:46:25;;;;;;;0.75;0.73;;;21.90;41.80;;;-147.20;100.00;58430.41;5093113;28;20463;-18
2022/05/31 03:49:07;;;;;;;0.70;0.70;;;21.90;41.70;;;-147.20;100.00;58430.41;5074906;28;20048;-18
2022/05/31 03:51:43;;;;;;;1.13;0.80;;;21.80;41.70;;;-147.20;100.00;58430.41;5074846;28;20050;-19
2022/05/31 03:54:26;;;;;;;0.60;0.60;;;21.90;41.70;;;-147.20;100.00;58430.41;5073382;28;20044;-18
2022/05/31 03:57:11;;;;;;;1.33;0.70;;;21.90;41.70;;;-147.20;100.00;58430.41;5092839;28;20051;-18
2022/05/31 03:59:39;;;;;;;1.67;0.68;;;21.90;41.70;;;-147.20;100.00;58430.41;5074655;28;20044;-19
2022/05/31 04:02:07;;;;;;;1.27;0.82;;;21.90;41.60;;;-147.20;100.00;58430.41;5074543;28;20490;-18
2022/05/31 04:04:34;;;;;;;0.60;0.60;;;22.00;41.60;;;-147.20;100.00;58430.41;5057618;28;20138;-18
2022/05/31 04:07:00;;;;;;;1.05;0.95;;;22.00;41.50;;;-147.20;100.00;58430.41;5073868;28;20101;-18
2022/05/31 04:09:27;;;;;;;0.60;0.60;;;22.10;41.50;;;-147.20;100.00;58430.41;5075367;28;20037;-18
2022/05/31 04:11:56;;;;;;;0.68;0.68;;;22.10;41.40;;;-147.20;100.00;58430.41;5074530;28;20048;-19
2022/05/31 04:14:43;;;;;;;1.00;0.57;;;22.20;41.30;;;-147.20;100.00;58430.41;5089195;28;20052;-19
2022/05/31 04:17:10;;;;;;;1.20;0.90;;;22.20;41.20;;;-147.20;100.00;58430.41;5091252;28;20048;-18
2022/05/31 04:19:37;;;;;;;1.00;0.70;;;22.20;41.20;;;-147.20;100.00;58430.41;5091302;28;20135;-18
2022/05/31 04:22:06;;;;;;;0.77;0.73;;;22.30;41.10;;;-147.20;100.00;58430.41;5091453;28;20040;-18
2022/05/31 04:24:34;;;;;;;0.65;0.60;;;22.30;41.10;;;-147.20;100.00;58430.41;5076794;28;20037;-18
2022/05/31 04:27:20;;;;;;;0.85;0.80;;;22.40;41.10;;;-147.20;100.00;58430.41;5095845;28;20098;-17
2022/05/31 04:30:05;;;;;;;0.70;0.70;;;22.40;41.00;;;-147.20;100.00;58430.41;5094806;28;20419;-19
2022/05/31 04:32:51;;;;;;;0.73;0.73;;;22.50;41.00;;;-147.20;100.00;58430.41;5096385;28;20144;-18
2022/05/31 04:35:25;;;;;;;1.38;0.73;;;22.50;41.50;;;-147.20;100.00;58430.41;5078122;28;20044;-18
2022/05/31 04:37:51;;;;;;;1.05;0.80;;;22.60;40.90;;;-147.20;100.00;58430.41;5095960;28;20056;-18
2022/05/31 04:40:25;;;;;;;1.02;0.85;;;22.60;40.80;;;-147.20;100.00;58430.41;5096090;28;20458;-18
2022/05/31 04:43:12;;;;;;;0.88;0.70;;;22.70;41.40;;;-147.20;100.00;58430.41;5077781;28;20044;-18
2022/05/31 04:46:16;;;;;;;0.60;0.60;;;22.70;40.80;;;-147.20;100.00;58430.41;5077699;28;20036;-19
2022/05/31 04:48:50;;;;;;;0.77;0.73;;;22.70;40.70;;;-147.20;100.00;58430.41;5078031;28;20051;-19
2022/05/31 04:51:17;;;;;;;0.70;0.70;;;22.80;40.70;;;-147.20;100.00;58430.41;5077579;28;20117;-19
2022/05/31 04:53:51;;;;;;;1.38;0.70;;;22.80;40.60;;;-147.20;100.00;58430.41;5077874;28;20044;-19
2022/05/31 04:56:36;;;;;;;0.65;0.60;;;22.90;40.80;;;-147.20;100.00;58430.41;5095522;28;20058;-18
2022/05/31 04:59:05;;;;;;;0.60;0.60;;;22.90;40.50;;;-147.20;100.00;58430.41;5077327;28;20040;-18
2022/05/31 05:01:35;;;;;;;0.65;0.65;;;23.00;40.50;;;-147.20;100.00;58430.41;5077609;28;20047;-18
2022/05/31 05:04:05;;;;;;;0.60;0.60;;;23.00;40.40;;;-147.20;100.00;58430.41;5075081;28;20144;-19
2022/05/31 05:06:40;;;;;;;0.90;0.70;;;23.00;40.40;;;-147.20;100.00;58430.41;5078449;28;20048;-18
2022/05/31 05:09:06;;;;;;;0.68;0.68;;;23.10;40.30;;;-147.20;100.00;58430.41;5076349;28;20040;-19
2022/05/31 05:11:33;;;;;;;1.10;0.73;;;23.10;40.30;;;-147.20;100.00;58430.41;5077593;28;20409;-18
2022/05/31 05:14:18;;;;;;;0.80;0.68;;;23.10;40.20;;;-147.20;100.00;58430.41;5095725;28;20101;-18
2022/05/31 05:16:54;;;;;;;0.90;0.85;;;23.10;40.20;;;-147.20;100.00;58430.41;5075816;28;20504;-18
2022/05/31 05:19:21;;;;;;;0.80;0.73;;;23.20;40.20;;;-147.20;100.00;58430.41;5075319;28;20049;-18
2022/05/31 05:21:53;;;;;;;0.85;0.68;;;23.20;40.20;;;-147.20;100.00;58430.41;5075690;28;20469;-18
2022/05/31 05:24:19;;;;;;;0.60;0.60;;;23.20;40.20;;;-147.20;100.00;58430.41;5076914;28;20044;-19
2022/05/31 05:26:59;;;;;;;0.95;0.70;;;23.20;40.10;;;-147.20;100.00;58430.41;5074969;28;20048;-19
2022/05/31 05:32:28;;;;;;;0.70;0.70;;;23.30;40.10;;;-147.20;100.00;58430.41;5077122;28;20079;-18
2022/05/31 05:35:12;;;;;;;0.65;0.65;;;23.30;40.00;;;-147.20;100.00;58430.41;5093874;28;20465;-18
2022/05/31 05:37:39;;;;;;;0.60;0.60;;;23.30;40.00;;;-147.20;100.00;58430.41;5087930;28;20041;-18
2022/05/31 05:40:06;;;;;;;0.70;0.70;;;23.30;39.90;;;-147.20;100.00;58430.41;5077185;28;20399;-19
2022/05/31 05:42:41;;;;;;;1.65;0.80;;;23.40;39.90;;;-147.20;100.00;58430.41;5076838;28;20040;-18
2022/05/31 05:45:14;;;;;;;0.65;0.60;;;23.40;39.90;;;-147.20;100.00;58430.41;5076854;28;20471;-18
2022/05/31 05:47:42;;;;;;;1.98;0.80;;;23.40;39.80;;;-147.20;100.00;58430.41;5075102;28;20403;-18
2022/05/31 05:50:08;;;;;;;1.27;0.70;;;23.40;39.70;;;-147.20;100.00;58430.41;5076782;28;20048;-18
2022/05/31 05:53:04;;;;;;;0.50;0.50;;;23.50;39.80;;;-147.20;100.00;58430.41;5094412;28;20131;-19
2022/05/31 05:55:48;;;;;;;1.33;0.70;;;23.50;39.70;;;-147.20;100.00;58430.41;5095016;28;20081;-18
2022/05/31 05:58:33;;;;;;;0.80;0.77;;;23.50;39.70;;;-147.20;100.00;58430.41;5094941;28;20089;-20
2022/05/31 06:01:25;;;;;;;0.70;0.70;;;23.50;39.60;;;-147.20;100.00;58430.41;5094588;28;20055;-20
2022/05/31 06:04:31;;;;;;;0.88;0.80;;;23.50;39.60;;;-147.20;100.00;58430.41;5077049;28;20051;-19
2022/05/31 06:07:19;;;;;;;0.60;0.60;;;23.60;39.60;;;-147.20;100.00;58430.41;5094308;28;20059;-19
2022/05/31 06:10:02;;;;;;;0.93;0.73;;;23.60;39.60;;;-147.20;100.00;58430.41;5059557;28;20052;-20
2022/05/31 06:12:36;;;;;;;0.70;0.70;;;23.70;39.50;;;-147.20;100.00;58430.41;5059455;28;20051;-19
2022/05/31 06:15:10;;;;;;;0.55;0.55;;;23.60;39.50;;;-147.20;100.00;58430.41;5059566;28;20044;-19
2022/05/31 06:17:42;;;;;;;1.13;0.70;;;23.70;39.40;;;-147.20;100.00;58430.41;5074011;28;20139;-18
2022/05/31 06:20:09;;;;;;;0.80;0.80;;;23.80;39.40;;;-147.20;100.00;58430.41;5075171;28;20435;-18
2022/05/31 06:22:38;;;;;;;0.63;0.60;;;23.80;39.40;;;-147.20;100.00;58430.41;5093947;28;20480;-20
2022/05/31 06:25:14;;;;;;;0.80;0.80;;;23.80;39.30;;;-147.20;100.00;58430.41;5076351;28;20373;-19
2022/05/31 06:27:51;;;;;;;0.88;0.80;;;23.80;39.30;;;-147.20;100.00;58430.41;5058604;28;20052;-19
2022/05/31 06:30:18;;;;;;;0.82;0.80;;;23.80;39.30;;;-147.20;100.00;58430.41;5075581;28;20055;-19
2022/05/31 06:32:45;;;;;;;0.60;0.60;;;23.80;39.30;;;-147.20;100.00;58430.41;5076255;28;20044;-19
2022/05/31 06:35:11;;;;;;;0.60;0.60;;;23.80;39.30;;;-147.20;100.00;58430.41;5074751;28;20056;-18
2022/05/31 06:37:47;;;;;;;1.67;0.60;;;23.80;39.30;;;-147.20;100.00;58430.41;5074438;28;20044;-19
2022/05/31 06:40:14;;;;;;;0.70;0.70;;;23.80;39.30;;;-147.20;100.00;58430.41;5093028;28;20105;-20
2022/05/31 06:43:03;;;;;;;0.70;0.60;;;23.80;39.30;;;-147.20;100.00;58430.41;5055591;28;20040;-19
2022/05/31 06:45:48;;;;;;;0.80;0.80;;;23.80;39.30;;;-147.20;100.00;58430.41;5092905;28;20088;-19
2022/05/31 06:48:53;;;;;;;0.55;0.55;;;23.80;39.20;;;-147.20;100.00;58430.41;5093382;28;20048;-19
2022/05/31 06:57:36;;;;;;;1.20;0.77;;;24.00;39.10;;;-147.20;100.00;58430.41;5093723;28;20097;-19
2022/05/31 07:00:27;;;;;;;0.63;0.60;;;24.00;39.00;;;-147.20;100.00;58430.41;5086494;28;20391;-19
2022/05/31 07:02:55;;;;;;;1.70;0.60;;;24.00;39.00;;;-147.20;100.00;58430.41;5075068;28;20093;-19
2022/05/31 07:05:22;;;;;;;0.55;0.55;;;24.00;39.10;;;-147.20;100.00;58430.41;5075226;28;20142;-19
2022/05/31 07:07:48;;;;;;;0.57;0.52;;;23.90;39.10;;;-147.20;100.00;58430.41;5058516;28;20048;-19
2022/05/31 07:10:32;;;;;;;0.70;0.70;;;23.80;39.20;;;-147.20;100.00;58430.41;5077105;28;20117;-21
2022/05/31 07:13:17;;;;;;;0.73;0.70;;;23.80;39.40;;;-147.20;100.00;58430.41;5093613;28;20055;-19
2022/05/31 07:16:02;;;;;;;1.13;0.80;;;23.70;39.40;;;-147.20;100.00;58430.41;5077978;28;20531;-19
2022/05/31 07:18:57;;;;;;;0.60;0.60;;;23.70;39.50;;;-147.20;100.00;58430.41;5092868;28;20051;-19
2022/05/31 07:21:26;;;;;;;0.60;0.50;;;23.70;39.50;;;-147.20;100.00;58430.41;5073757;28;20072;-19
2022/05/31 07:23:53;;;;;;;0.60;0.60;;;23.80;39.50;;;-147.20;100.00;58430.41;5075070;28;20055;-19
2022/05/31 07:26:20;;;;;;;0.70;0.70;;;23.70;39.50;;;-147.20;100.00;58430.41;5074785;28;20136;-19
2022/05/31 07:28:49;;;;;;;0.50;0.50;;;23.80;39.40;;;-147.20;100.00;58430.41;5074443;28;20143;-19
2022/05/31 07:31:15;;;;;;;0.60;0.60;;;23.80;39.30;;;-147.20;100.00;58430.41;5078168;28;20045;-19
2022/05/31 07:34:00;;;;;;;0.60;0.60;;;23.90;39.30;;;-147.20;100.00;58430.41;5092169;28;20052;-19
2022/05/31 07:36:27;;;;;;;0.70;0.57;;;23.90;39.10;;;-147.20;100.00;58430.41;5093244;28;20122;-19
2022/05/31 07:39:03;;;;;;;0.70;0.70;;;23.90;39.20;;;-147.20;100.00;58430.41;5074653;28;20051;-19
2022/05/31 07:41:32;;;;;;;0.50;0.50;;;23.80;39.30;;;-147.20;100.00;58430.41;5075602;28;20485;-19
2022/05/31 07:44:00;;;;;;;1.58;0.60;;;23.80;39.40;;;-147.20;100.00;58430.41;5073360;28;20066;-19
2022/05/31 07:46:29;;;;;;;0.80;0.80;;;23.70;39.50;;;-147.20;100.00;58430.41;5074724;28;20475;-19
2022/05/31 07:48:56;;;;;;;0.60;0.60;;;23.80;39.40;;;-147.20;100.00;58430.41;5075155;28;20073;-20
2022/05/31 07:51:37;;;;;;;0.50;0.50;;;23.80;39.30;;;-147.20;100.00;58430.41;5074503;28;20400;-20
2022/05/31 07:54:22;;;;;;;0.60;0.52;;;23.80;39.20;;;-147.20;100.00;58430.41;5092558;28;20051;-20
2022/05/31 07:57:07;;;;;;;1.10;0.60;;;23.90;39.20;;;-147.20;100.00;58430.41;5091778;28;20076;-19
2022/05/31 07:59:51;;;;;;;0.57;0.57;;;23.90;39.10;;;-147.20;100.00;58430.41;5092696;28;20101;-19
2022/05/31 08:02:36;;;;;;;0.60;0.60;;;23.90;39.20;;;-147.20;100.00;58430.41;5092295;28;20480;-20
2022/05/31 08:05:02;;;;;;;0.65;0.65;;;23.80;39.30;;;-147.20;100.00;58430.41;5075811;28;20363;-20
2022/05/31 08:07:28;;;;;;;0.75;0.75;;;23.80;39.30;;;-147.20;100.00;58430.41;5092779;28;20102;-20
2022/05/31 08:09:54;;;;;;;0.63;0.63;;;23.80;39.30;;;-147.20;100.00;58430.41;5092701;28;20048;-20
2022/05/31 08:12:20;;;;;;;0.63;0.50;;;23.80;39.30;;;-147.20;100.00;58430.41;5092499;28;20048;-20
2022/05/31 08:14:47;;;;;;;0.50;0.50;;;23.80;39.30;;;-147.20;100.00;58430.41;5092310;28;20048;-20
2022/05/31 08:17:13;;;;;;;0.70;0.70;;;23.80;39.30;;;-147.20;100.00;58430.41;5092325;28;20084;-19
2022/05/31 08:19:39;;;;;;;0.50;0.50;;;23.90;39.20;;;-147.20;100.00;58430.41;5092461;28;20376;-19
2022/05/31 08:22:07;;;;;;;0.82;0.80;;;23.90;39.10;;;-147.20;100.00;58430.41;5092174;28;20052;-19
2022/05/31 08:24:33;;;;;;;0.90;0.60;;;23.90;39.10;;;-147.20;100.00;58430.41;5092173;28;20134;-20
2022/05/31 08:27:00;;;;;;;0.88;0.70;;;23.90;39.20;;;-147.20;100.00;58430.41;5092267;28;20131;-20
2022/05/31 08:29:28;;;;;;;0.80;0.60;;;23.90;39.20;;;-147.20;100.00;58430.41;5092294;28;20044;-19
2022/05/31 08:31:57;;;;;;;0.80;0.60;;;23.90;39.20;;;-147.20;100.00;58430.41;5092090;28;20052;-19
2022/05/31 08:34:23;;;;;;;0.60;0.60;;;23.90;39.10;;;-147.20;100.00;58430.41;5092012;28;20183;-20
2022/05/31 08:36:49;;;;;;;1.20;0.70;;;23.90;39.10;;;-147.20;100.00;58430.41;5091914;28;20044;-20
2022/05/31 08:39:15;;;;;;;0.70;0.70;;;23.90;39.10;;;-147.20;100.00;58430.41;5092057;28;20050;-19
2022/05/31 08:41:47;;;;;;;0.60;0.60;;;23.90;39.20;;;-147.20;100.00;58430.41;5091950;28;20142;-19
2022/05/31 08:44:35;;;;;;;1.23;0.70;;;23.90;39.20;;;-147.20;100.00;58430.41;5092494;28;20492;-19
2022/05/31 08:47:22;;;;;;;0.60;0.60;;;23.80;39.30;;;-147.20;100.00;58430.41;5091666;28;20392;-19
2022/05/31 08:53:22;;;;;;;0.88;0.68;;;23.80;39.30;;;-147.20;100.00;58430.41;5091961;28;20044;-19
2022/05/31 08:59:06;;;;;;;0.73;0.70;;;23.70;39.50;;;-147.20;100.00;58430.41;5059645;28;20067;-19
2022/05/31 09:01:39;;;;;;;0.50;0.50;;;23.60;39.50;;;-147.20;100.00;58430.41;5073732;28;20115;-21
2022/05/31 09:04:33;;;;;;;0.65;0.65;;;23.70;39.60;;;-147.20;100.00;58430.41;5073601;28;20044;-20
2022/05/31 09:07:08;;;;;;;1.15;0.77;;;23.60;39.60;;;-147.20;100.00;58430.41;5091768;28;20466;-20
2022/05/31 09:09:58;;;;;;;0.50;0.45;;;23.60;39.60;;;-147.20;100.00;58430.41;5075817;28;20047;-19
2022/05/31 09:12:37;;;;;;;0.60;0.60;;;23.60;39.60;;;-147.20;100.00;58430.41;5095247;28;20483;-21
2022/05/31 09:15:21;;;;;;;0.57;0.57;;;23.60;39.70;;;-147.20;100.00;58430.41;5095364;28;20059;-20
2022/05/31 09:18:04;;;;;;;0.93;0.70;;;23.60;39.70;;;-147.20;100.00;58430.41;5095308;28;20162;-20
2022/05/31 09:20:48;;;;;;;0.60;0.60;;;23.60;39.70;;;-147.20;100.00;58430.41;5075747;28;20059;-20
2022/05/31 09:23:25;;;;;;;0.95;0.52;;;23.60;39.70;;;-147.20;100.00;58430.41;5076865;28;20082;-19
2022/05/31 09:26:07;;;;;;;0.65;0.60;;;23.60;39.70;;;-147.20;100.00;58430.41;5076420;28;20058;-19
2022/05/31 09:28:43;;;;;;;0.70;0.70;;;23.60;39.70;;;-147.20;100.00;58430.41;5095075;28;20551;-18
2022/05/31 09:31:50;;;;;;;0.45;0.40;;;23.50;39.70;;;-147.20;100.00;58430.41;5077149;28;20044;-18
2022/05/31 09:34:49;;;;;;;0.50;0.50;;;23.50;39.70;;;-147.20;100.00;58430.41;5094879;28;20488;-19
2022/05/31 09:37:49;;;;;;;0.50;0.50;;;23.60;39.70;;;-147.20;100.00;58430.41;5094228;28;20048;-18
2022/05/31 09:40:43;;;;;;;0.70;0.70;;;23.60;39.70;;;-147.20;100.00;58430.41;5095391;28;20472;-18
2022/05/31 09:43:50;;;;;;;0.60;0.60;;;23.60;39.80;;;-147.20;100.00;58430.41;5076660;28;20124;-19
2022/05/31 09:46:37;;;;;;;0.63;0.63;;;23.50;39.70;;;-147.20;100.00;58430.41;5077402;28;20040;-19
2022/05/31 09:49:28;;;;;;;0.88;0.70;;;23.50;39.70;;;-147.20;100.00;58430.41;5076873;28;20127;-19
2022/05/31 09:51:54;;;;;;;0.52;0.45;;;23.50;39.80;;;-147.20;100.00;58430.41;5095115;28;20056;-19
2022/05/31 09:57:28;;;;;;;0.57;0.55;;;23.50;39.90;;;-147.20;100.00;58430.41;5094658;28;20040;-19
2022/05/31 10:00:17;;;;;;;1.10;0.70;;;23.50;39.90;;;-147.20;100.00;58430.41;5094378;28;20491;-21
2022/05/31 10:03:17;;;;;;;0.65;0.65;;;23.40;39.90;;;-147.20;100.00;58430.41;5091029;28;20474;-17
2022/05/31 10:05:45;;;;;;;0.60;0.50;;;23.40;39.90;;;-147.20;100.00;58430.41;5094527;28;20044;-19
2022/05/31 10:08:29;;;;;;;1.00;0.63;;;23.40;40.00;;;28.26;27.96;101515.72;5094144;28;20058;-21
2022/05/31 10:10:55;;;;;;;0.50;0.50;;;23.40;39.90;;;27.35;26.01;101183.84;5093944;28;20378;-21
2022/05/31 10:14:19;;;;;;;0.63;0.60;;;23.40;39.90;;;27.32;26.03;101176.88;5093858;28;20044;-19
2022/05/31 10:16:47;;;;;;;1.63;0.68;;;23.40;39.90;;;27.35;25.78;101186.53;5054207;28;20135;-20
2022/05/31 10:19:28;;;;;;;0.57;0.57;;;23.40;40.00;;;27.26;26.16;101177.38;5089972;28;20060;-21
2022/05/31 10:21:56;;;;;;;0.52;0.52;;;23.40;40.00;;;27.29;26.12;101182.50;5092212;28;20052;-21
2022/05/31 10:24:52;;;;;;;0.65;0.60;;;23.40;40.00;;;27.32;25.91;101179.56;5038649;28;20053;-20
2022/05/31 10:27:37;;;;;;;0.70;0.70;;;23.40;40.00;;;27.24;25.87;101170.44;5093621;28;20043;-20
2022/05/31 10:30:10;;;;;;;0.70;0.70;;;23.40;40.00;;;27.30;25.94;101186.06;5093758;28;20048;-19
2022/05/31 10:32:58;;;;;;;1.30;0.60;;;23.40;39.90;;;27.28;25.84;101178.13;5076956;28;20141;-20
2022/05/31 10:35:37;;;;;;;0.57;0.50;;;23.40;39.90;;;27.27;25.78;101171.03;5093812;28;20052;-20
2022/05/31 10:38:25;;;;;;;1.55;0.70;;;23.50;40.00;;;27.29;25.93;101171.78;5093904;28;20048;-20
2022/05/31 10:41:02;;;;;;;3.28;0.70;;;23.50;39.90;;;27.34;25.90;101177.59;5093352;28;20238;-20
2022/05/31 10:44:04;;;;;;;1.58;0.70;;;23.50;39.90;;;27.30;25.95;101156.53;5075818;28;20061;-20
2022/05/31 10:46:36;;;;;;;1.75;0.80;;;23.50;39.80;;;27.35;26.00;101163.22;5062379;28;20138;-20
2022/05/31 10:49:14;;;;;;;0.77;0.57;;;23.50;39.70;;;27.35;26.02;101157.84;5093893;28;20396;-20
2022/05/31 10:52:20;;;;;;;0.73;0.60;;;23.60;39.70;;;27.43;25.78;101165.25;5073932;28;20052;-20
2022/05/31 10:55:19;;;;;;;1.15;0.80;;;23.60;39.70;;;27.43;25.72;101156.31;5075245;28;20064;-21